Flugplatz Lübeck Blankensee

Prognose für EDHL

vom 25.08. um 00:00 UTC

Zwischen 00:00 UTC und 00:00 UTC

Wind 7 kt aus 40°

Sichtweite 10 km oder mehr

keine signifikanten Wettererscheinungen

keine Wolken


Zwischen 00:00 und 00:00 UTC übergehend zu

Wind 2 kt aus 60°

Sichtweite 10 km oder mehr

keine signifikanten Wettererscheinungen

keine Wolken

TAF EDHL 251700Z 2518/2521 04007KT CAVOK BECMG 2518/2520 06002KT
Impressum